Thunder radar more information blitzortung!


Radar de pluja more information rain snow radar


Visita la nostra xarxa de llocs de meteo:

Template documentation
and downloads

And another site



No particular awareness of the weather is required.    There are no Weather-warnings

Pagina Historial Weather Underground text

Diari Resum Juny 27, 2017 Unitats:  Mètric    Imperial   Tant
« Previous Dia
SegĂźent Dia »
Diari Setmana Mensual Anual Personalitzada
  Maxima: Minima: Media:
Temperatura: 30.2 °C 20.5 °C 25.7 °C
Punt de rosada: 19.4 °C 15.3 °C 17.7 °C
Humitat: 79 % 47 % 62 %
Wind Speed: 20.4 km/h 0.0 km/h 6.6 km/h
RĂ fegues de vent: 20.9 km/h - -
Vent:- - SSE
Pression baro: 1008.0 hPa 1000.9 hPa -
Precipitacions: 0.0 mm    
Historical Graphs
 
 
Dades de taula per Juny 27, 2017
Temps Temperatura Punt de rosada Pression baro Vent Wind Speed RĂ fegues de vent Humitat Rainfall Rate (Hourly)
00:00 21.2 °C 15.7 °C 1008.0 hPa NNE 1.6 km/h   71 % 0.0 mm
00:01 24.4 °C 15.3 °C 1008.0 hPa West 5.6 km/h 5.6 km/h 57 % 0.0 mm
00:06 24.4 °C 15.3 °C 1008.0 hPa WSW 5.6 km/h 5.6 km/h 57 % 0.0 mm
00:10 21.2 °C 15.9 °C 1008.0 hPa Calm     72 % 0.0 mm
00:20 21.2 °C 15.9 °C 1008.0 hPa NNW 1.6 km/h 3.2 km/h 72 % 0.0 mm
00:30 21.2 °C 15.9 °C 1008.0 hPa Calm   1.6 km/h 72 % 0.0 mm
00:40 21.0 °C 16.0 °C 1008.0 hPa Calm   1.6 km/h 73 % 0.0 mm
00:50 20.9 °C 15.9 °C 1007.0 hPa Calm     73 % 0.0 mm
01:00 20.9 °C 15.9 °C 1007.0 hPa Calm   1.6 km/h 73 % 0.0 mm
01:10 20.9 °C 16.1 °C 1007.0 hPa Calm   1.6 km/h 74 % 0.0 mm
01:20 20.9 °C 15.9 °C 1007.0 hPa NNE 3.2 km/h 3.2 km/h 73 % 0.0 mm
01:30 20.8 °C 16.0 °C 1007.0 hPa NE 1.6 km/h 3.2 km/h 74 % 0.0 mm
01:40 20.7 °C 15.9 °C 1007.0 hPa Calm   1.6 km/h 74 % 0.0 mm
01:50 20.5 °C 15.5 °C 1007.0 hPa NNE 1.6 km/h 1.6 km/h 73 % 0.0 mm
02:00 20.5 °C 15.7 °C 1007.0 hPa WNW 1.6 km/h 1.6 km/h 74 % 0.0 mm
02:10 20.7 °C 15.9 °C 1007.0 hPa WSW 1.6 km/h 3.2 km/h 74 % 0.0 mm
02:20 20.9 °C 16.1 °C 1007.0 hPa Calm   1.6 km/h 74 % 0.0 mm
02:30 21.1 °C 16.3 °C 1007.0 hPa East 1.6 km/h 3.2 km/h 74 % 0.0 mm
02:40 21.2 °C 16.4 °C 1007.0 hPa Calm   1.6 km/h 74 % 0.0 mm
02:50 21.8 °C 16.9 °C 1008.0 hPa North 1.6 km/h 4.8 km/h 74 % 0.0 mm
03:00 21.5 °C 16.4 °C 1008.0 hPa NE 3.2 km/h 4.8 km/h 73 % 0.0 mm
03:10 21.5 °C 16.4 °C 1008.0 hPa NE 1.6 km/h 4.8 km/h 73 % 0.0 mm
03:20 21.7 °C 16.4 °C 1008.0 hPa NE 1.6 km/h 3.2 km/h 72 % 0.0 mm
03:30 21.8 °C 16.3 °C 1008.0 hPa NE 3.2 km/h 4.8 km/h 71 % 0.0 mm
03:40 21.9 °C 16.4 °C 1008.0 hPa NE 3.2 km/h 4.8 km/h 71 % 0.0 mm
03:50 22.3 °C 16.6 °C 1008.0 hPa NE 1.6 km/h 6.4 km/h 70 % 0.0 mm
04:00 22.4 °C 16.7 °C 1008.0 hPa NE 1.6 km/h 6.4 km/h 70 % 0.0 mm
04:10 22.8 °C 17.1 °C 1008.0 hPa NE 3.2 km/h 3.2 km/h 70 % 0.0 mm
04:20 23.5 °C 17.5 °C 1008.0 hPa NE 1.6 km/h 3.2 km/h 69 % 0.0 mm
04:30 24.1 °C 17.8 °C 1008.0 hPa NNE 1.6 km/h 4.8 km/h 68 % 0.0 mm
04:40 24.0 °C 17.9 °C 1008.0 hPa ENE 3.2 km/h 4.8 km/h 69 % 0.0 mm
04:50 24.4 °C 18.1 °C 1008.0 hPa East 4.8 km/h 4.8 km/h 68 % 0.0 mm
05:00 25.2 °C 18.6 °C 1008.0 hPa ESE 3.2 km/h 6.4 km/h 67 % 0.0 mm
05:10 26.0 °C 18.9 °C 1008.0 hPa SSE 3.2 km/h 4.8 km/h 65 % 0.0 mm
05:20 26.2 °C 18.8 °C 1008.0 hPa SSE 4.8 km/h 6.4 km/h 64 % 0.0 mm
05:30 25.9 °C 18.6 °C 1008.0 hPa ESE 4.8 km/h 6.4 km/h 64 % 0.0 mm
05:40 26.3 °C 18.7 °C 1007.0 hPa East 3.2 km/h 9.7 km/h 63 % 0.0 mm
05:50 26.5 °C 19.1 °C 1007.0 hPa East 4.8 km/h 8.0 km/h 64 % 0.0 mm
09:00 28.1 °C 18.2 °C 1006.0 hPa ESE 11.3 km/h 11.3 km/h 55 % 0.0 mm
09:10 28.0 °C 17.8 °C 1006.0 hPa ESE 14.5 km/h 20.9 km/h 54 % 0.0 mm
09:20 28.0 °C 18.1 °C 1006.0 hPa ESE 11.3 km/h 12.9 km/h 55 % 0.0 mm
09:30 28.4 °C 17.9 °C 1006.0 hPa East 4.8 km/h 12.9 km/h 53 % 0.0 mm
09:40 28.7 °C 17.9 °C 1006.0 hPa SE 9.7 km/h 9.7 km/h 52 % 0.0 mm
09:50 28.6 °C 17.8 °C 1006.0 hPa SE 8.0 km/h 17.7 km/h 52 % 0.0 mm
10:00 28.1 °C 17.6 °C 1006.0 hPa ESE 9.7 km/h 12.9 km/h 53 % 0.0 mm
10:10 28.2 °C 17.7 °C 1005.0 hPa ESE 8.0 km/h 11.3 km/h 53 % 0.0 mm
10:20 28.8 °C 18.3 °C 1006.0 hPa SE 3.2 km/h 14.5 km/h 53 % 0.0 mm
10:30 28.9 °C 18.7 °C 1006.0 hPa SE 3.2 km/h 11.3 km/h 54 % 0.0 mm
10:40 29.0 °C 18.2 °C 1006.0 hPa SE 4.8 km/h 9.7 km/h 52 % 0.0 mm
10:50 28.4 °C 17.9 °C 1006.0 hPa SSE 3.2 km/h 9.7 km/h 53 % 0.0 mm
10:52 26.9 °C 19.3 °C 1007.0 hPa ENE 9.5 km/h 9.5 km/h 63 % 0.0 mm
10:57 26.8 °C 18.9 °C 1007.0 hPa ESE 5.8 km/h 5.8 km/h 62 % 0.0 mm
11:00 29.6 °C 18.1 °C 1006.0 hPa South 3.2 km/h 12.9 km/h 50 % 0.0 mm
11:02 26.9 °C 18.7 °C 1007.0 hPa ENE 11.1 km/h 11.1 km/h 61 % 0.0 mm
11:07 27.0 °C 18.8 °C 1007.0 hPa ENE 7.4 km/h 7.4 km/h 61 % 0.0 mm
11:10 29.3 °C 17.5 °C 1003.9 hPa SSW 4.8 km/h 6.4 km/h 49 % 0.0 mm
11:12 27.1 °C 18.9 °C 1007.0 hPa NNE 9.7 km/h 9.7 km/h 61 % 0.0 mm
11:17 27.4 °C 18.7 °C 1007.0 hPa East 9.3 km/h 9.3 km/h 59 % 0.0 mm
11:20 29.3 °C 17.5 °C 1003.9 hPa South 9.7 km/h 9.7 km/h 49 % 0.0 mm
11:22 28.0 °C 19.2 °C 1007.0 hPa ENE 11.1 km/h 11.1 km/h 59 % 0.0 mm
11:27 27.5 °C 18.5 °C 1007.0 hPa ESE 11.1 km/h 11.1 km/h 58 % 0.0 mm
11:30 29.8 °C 17.9 °C 1003.9 hPa SSW 4.8 km/h 9.7 km/h 49 % 0.0 mm
11:32 27.9 °C 18.9 °C 1007.0 hPa East 10.3 km/h 10.3 km/h 58 % 0.0 mm
11:37 27.7 °C 18.7 °C 1007.0 hPa East 11.1 km/h 11.1 km/h 58 % 0.0 mm
11:40 30.2 °C 17.7 °C 1003.9 hPa SSW 3.2 km/h 8.0 km/h 47 % 0.0 mm
11:42 27.2 °C 18.2 °C 1006.0 hPa East 13.0 km/h 13.0 km/h 58 % 0.0 mm
11:47 27.5 °C 18.8 °C 1006.0 hPa ESE 13.0 km/h 13.0 km/h 59 % 0.0 mm
11:52 27.7 °C 18.9 °C 1006.0 hPa ESE 14.8 km/h 14.8 km/h 59 % 0.0 mm
11:57 27.5 °C 18.8 °C 1007.0 hPa ESE 16.7 km/h 16.7 km/h 59 % 0.0 mm
12:02 27.7 °C 18.9 °C 1007.0 hPa SSE 20.4 km/h 20.4 km/h 59 % 0.0 mm
12:07 27.8 °C 18.8 °C 1007.0 hPa SE 13.0 km/h 13.0 km/h 58 % 0.0 mm
12:12 28.5 °C 19.4 °C 1006.0 hPa East 12.2 km/h 12.2 km/h 58 % 0.0 mm
12:17 28.2 °C 19.2 °C 1006.0 hPa East 16.7 km/h 16.7 km/h 58 % 0.0 mm
12:20 28.5 °C 19.4 °C 1006.0 hPa East 9.3 km/h 9.5 km/h 58 % 0.0 mm
12:25 28.7 °C 19.1 °C 1006.0 hPa ESE 17.2 km/h 17.2 km/h 56 % 0.0 mm
12:30 28.1 °C 18.8 °C 1006.0 hPa ESE 18.5 km/h 18.5 km/h 57 % 0.0 mm
12:35 28.8 °C 19.4 °C 1006.0 hPa ESE 13.7 km/h 13.7 km/h 57 % 0.0 mm
12:40 28.4 °C 18.8 °C 1006.0 hPa East 20.4 km/h 20.4 km/h 56 % 0.0 mm
12:45 28.0 °C 18.4 °C 1006.0 hPa East 14.8 km/h 14.8 km/h 56 % 0.0 mm
12:50 28.0 °C 18.4 °C 1006.0 hPa ENE 16.7 km/h 16.7 km/h 56 % 0.0 mm
12:55 28.1 °C 18.2 °C 1006.0 hPa East 18.5 km/h 18.5 km/h 55 % 0.0 mm
13:00 28.2 °C 18.3 °C 1006.0 hPa ESE 18.5 km/h 18.5 km/h 55 % 0.0 mm
13:05 28.1 °C 17.9 °C 1006.0 hPa East 18.5 km/h 18.5 km/h 54 % 0.0 mm
13:10 28.7 °C 18.8 °C 1006.0 hPa ESE 9.5 km/h 9.5 km/h 55 % 0.0 mm
13:15 28.4 °C 18.2 °C 1006.0 hPa NE 16.7 km/h 16.7 km/h 54 % 0.0 mm
13:20 28.4 °C 18.2 °C 1006.0 hPa East 18.3 km/h 18.3 km/h 54 % 0.0 mm
13:25 28.5 °C 18.3 °C 1006.0 hPa East 15.6 km/h 15.6 km/h 54 % 0.0 mm
13:30 28.3 °C 18.1 °C 1006.0 hPa ENE 20.4 km/h 20.4 km/h 54 % 0.0 mm
13:35 28.0 °C 17.8 °C 1006.0 hPa ENE 18.5 km/h 18.5 km/h 54 % 0.0 mm
13:40 28.0 °C 18.1 °C 1006.0 hPa ESE 16.7 km/h 16.7 km/h 55 % 0.0 mm
13:45 27.8 °C 17.9 °C 1006.0 hPa ESE 20.4 km/h 20.4 km/h 55 % 0.0 mm
16:43 30.0 °C 17.8 °C 1003.9 hPa SW 13.0 km/h 13.0 km/h 48 % 0.0 mm
16:48 29.9 °C 17.7 °C 1003.9 hPa South 7.4 km/h 7.4 km/h 48 % 0.0 mm
16:53 29.7 °C 17.5 °C 1003.9 hPa SW 11.1 km/h 11.1 km/h 48 % 0.0 mm
16:58 29.8 °C 17.6 °C 1003.9 hPa West 9.3 km/h 9.3 km/h 48 % 0.0 mm
17:03 29.9 °C 17.7 °C 1003.9 hPa SW 5.8 km/h 5.8 km/h 48 % 0.0 mm
17:08 30.0 °C 17.8 °C 1003.9 hPa SSW 3.9 km/h 3.9 km/h 48 % 0.0 mm
17:13 29.8 °C 17.6 °C 1003.9 hPa SW 11.9 km/h 11.9 km/h 48 % 0.0 mm
17:18 28.9 °C 17.4 °C 1003.9 hPa SW 13.0 km/h 13.0 km/h 50 % 0.0 mm
17:23 28.9 °C 17.4 °C 1003.9 hPa West 11.9 km/h 11.9 km/h 50 % 0.0 mm
17:28 29.1 °C 17.3 °C 1003.9 hPa SW 16.7 km/h 16.7 km/h 49 % 0.0 mm
17:33 29.1 °C 17.3 °C 1003.9 hPa SW 13.0 km/h 13.0 km/h 49 % 0.0 mm
17:34 29.2 °C 17.4 °C 1003.9 hPa WSW 9.3 km/h 9.3 km/h 49 % 0.0 mm
17:39 28.9 °C 17.4 °C 1003.9 hPa West 13.0 km/h 13.0 km/h 50 % 0.0 mm
17:44 28.6 °C 17.4 °C 1003.9 hPa WSW 9.3 km/h 9.7 km/h 51 % 0.0 mm
17:49 29.1 °C 17.6 °C 1003.9 hPa SW 18.5 km/h 18.5 km/h 50 % 0.0 mm
17:54 29.1 °C 17.6 °C 1003.9 hPa South 9.3 km/h 9.3 km/h 50 % 0.0 mm
17:59 29.6 °C 17.8 °C 1002.9 hPa SE 5.6 km/h 5.6 km/h 49 % 0.0 mm
18:04 29.4 °C 17.6 °C 1002.9 hPa SSW 11.1 km/h 11.1 km/h 49 % 0.0 mm
18:09 29.3 °C 17.5 °C 1002.9 hPa SW 7.4 km/h 7.4 km/h 49 % 0.0 mm
18:14 28.7 °C 17.2 °C 1002.9 hPa SW 6.9 km/h 6.9 km/h 50 % 0.0 mm
18:19 28.4 °C 17.0 °C 1002.9 hPa SW 3.7 km/h 3.7 km/h 50 % 0.0 mm
18:24 28.2 °C 16.8 °C 1002.9 hPa South 7.4 km/h 7.4 km/h 50 % 0.0 mm
18:29 28.2 °C 16.8 °C 1002.9 hPa SW 5.6 km/h 5.6 km/h 50 % 0.0 mm
18:34 28.1 °C 17.0 °C 1002.9 hPa SW 5.6 km/h 5.6 km/h 51 % 0.0 mm
18:39 27.9 °C 16.8 °C 1002.9 hPa SW 5.6 km/h 5.6 km/h 51 % 0.0 mm
18:44 27.8 °C 16.7 °C 1002.9 hPa South 3.7 km/h 3.7 km/h 51 % 0.0 mm
18:49 27.5 °C 16.4 °C 1002.9 hPa SW 11.1 km/h 11.1 km/h 51 % 0.0 mm
18:54 27.2 °C 16.5 °C 1002.9 hPa SSW 7.6 km/h 7.6 km/h 52 % 0.0 mm
18:59 27.2 °C 16.5 °C 1002.9 hPa WSW 5.6 km/h 5.6 km/h 52 % 0.0 mm
19:04 27.4 °C 16.7 °C 1002.9 hPa SSW 13.7 km/h 13.7 km/h 52 % 0.0 mm
19:09 27.8 °C 17.3 °C 1002.9 hPa South 9.3 km/h 9.3 km/h 53 % 0.0 mm
19:14 27.7 °C 17.3 °C 1002.9 hPa WSW 13.0 km/h 13.0 km/h 53 % 0.0 mm
19:19 27.7 °C 17.3 °C 1002.9 hPa WSW 5.6 km/h 7.9 km/h 53 % 0.0 mm
19:20 23.4 °C 18.3 °C 1002.9 hPa Calm   1.6 km/h 73 % 0.0 mm
19:24 27.5 °C 17.1 °C 1002.9 hPa SW 6.4 km/h 6.4 km/h 53 % 0.0 mm
19:29 27.5 °C 17.4 °C 1001.9 hPa SW 11.1 km/h 11.1 km/h 54 % 0.0 mm
19:30 23.2 °C 18.3 °C 1002.9 hPa SW 3.2 km/h 3.2 km/h 74 % 0.0 mm
19:34 27.6 °C 17.4 °C 1001.9 hPa WSW 9.3 km/h 9.3 km/h 54 % 0.0 mm
19:39 27.3 °C 17.2 °C 1001.9 hPa WSW 14.8 km/h 14.8 km/h 54 % 0.0 mm
19:40 23.2 °C 18.3 °C 1003.9 hPa Calm   3.2 km/h 74 % 0.0 mm
19:44 27.2 °C 17.1 °C 1001.9 hPa SW 9.3 km/h 9.3 km/h 54 % 0.0 mm
19:49 27.2 °C 17.1 °C 1001.9 hPa SW 7.4 km/h 7.4 km/h 54 % 0.0 mm
19:50 23.2 °C 18.3 °C 1003.9 hPa Calm   1.6 km/h 74 % 0.0 mm
19:54 27.2 °C 17.1 °C 1001.9 hPa SW 5.8 km/h 5.8 km/h 54 % 0.0 mm
19:59 27.1 °C 17.3 °C 1001.9 hPa WNW 5.8 km/h 5.8 km/h 55 % 0.0 mm
20:00 23.2 °C 18.3 °C 1003.9 hPa NE 1.6 km/h 1.6 km/h 74 % 0.0 mm
20:04 27.0 °C 17.2 °C 1001.9 hPa SW 7.4 km/h 7.4 km/h 55 % 0.0 mm
20:09 26.8 °C 17.3 °C 1001.9 hPa SW 9.3 km/h 9.3 km/h 56 % 0.0 mm
20:10 23.2 °C 18.3 °C 1002.9 hPa NNE 3.2 km/h 4.8 km/h 74 % 0.0 mm
20:14 26.7 °C 17.5 °C 1001.9 hPa SSW 7.4 km/h 7.4 km/h 57 % 0.0 mm
20:19 26.6 °C 17.4 °C 1001.9 hPa WSW 11.1 km/h 11.1 km/h 57 % 0.0 mm
20:20 23.0 °C 18.1 °C 1003.9 hPa Calm   3.2 km/h 74 % 0.0 mm
20:24 26.5 °C 17.6 °C 1001.9 hPa SW 8.7 km/h 8.7 km/h 58 % 0.0 mm
20:29 26.4 °C 17.4 °C 1000.9 hPa SW 7.4 km/h 7.4 km/h 58 % 0.0 mm
20:30 23.0 °C 18.3 °C 1003.9 hPa NE 1.6 km/h 1.6 km/h 75 % 0.0 mm
20:34 26.4 °C 17.4 °C 1000.9 hPa SW 5.6 km/h 5.6 km/h 58 % 0.0 mm
20:39 26.4 °C 17.7 °C 1000.9 hPa WSW 5.6 km/h 5.6 km/h 59 % 0.0 mm
20:40 23.0 °C 18.6 °C 1002.9 hPa NE 1.6 km/h 1.6 km/h 76 % 0.0 mm
20:44 26.4 °C 17.7 °C 1001.9 hPa East 3.7 km/h 3.7 km/h 59 % 0.0 mm
20:49 26.2 °C 17.8 °C 1001.9 hPa WSW 9.3 km/h 9.3 km/h 60 % 0.0 mm
20:50 22.9 °C 18.7 °C 1003.9 hPa ENE 1.6 km/h 3.2 km/h 77 % 0.0 mm
20:54 26.0 °C 17.9 °C 1001.9 hPa WSW 5.6 km/h 5.6 km/h 61 % 0.0 mm
20:59 25.9 °C 17.8 °C 1001.9 hPa SW 5.6 km/h 5.6 km/h 61 % 0.0 mm
21:00 22.8 °C 18.8 °C 1003.9 hPa NE 3.2 km/h 3.2 km/h 78 % 0.0 mm
21:04 25.8 °C 17.9 °C 1001.9 hPa SSW 3.7 km/h 3.7 km/h 62 % 0.0 mm
21:09 25.6 °C 17.8 °C 1001.9 hPa SSW 7.4 km/h 7.4 km/h 62 % 0.0 mm
21:10 22.7 °C 18.7 °C 1003.9 hPa NNE 3.2 km/h 4.8 km/h 78 % 0.0 mm
21:14 25.5 °C 17.7 °C 1001.9 hPa SW 5.8 km/h 5.8 km/h 62 % 0.0 mm
21:19 25.4 °C 17.8 °C 1001.9 hPa West 3.7 km/h 3.7 km/h 63 % 0.0 mm
21:20 22.6 °C 18.6 °C 1003.9 hPa NNE 1.6 km/h 4.8 km/h 78 % 0.0 mm
21:24 25.4 °C 17.8 °C 1001.9 hPa WSW 3.9 km/h 3.9 km/h 63 % 0.0 mm
21:29 25.3 °C 17.7 °C 1001.9 hPa SW 3.7 km/h 3.7 km/h 63 % 0.0 mm
21:30 22.6 °C 18.6 °C 1003.9 hPa NE 3.2 km/h 6.4 km/h 78 % 0.0 mm
21:34 25.2 °C 17.9 °C 1001.9 hPa SW 3.7 km/h 3.7 km/h 64 % 0.0 mm
21:39 25.1 °C 17.8 °C 1001.9 hPa SSW 5.6 km/h 5.6 km/h 64 % 0.0 mm
21:40 22.6 °C 18.6 °C 1003.9 hPa NE 1.6 km/h 1.6 km/h 78 % 0.0 mm
21:44 24.9 °C 17.9 °C 1000.9 hPa SW 5.6 km/h 5.6 km/h 65 % 0.0 mm
21:49 24.8 °C 17.8 °C 1000.9 hPa SW 5.6 km/h 5.6 km/h 65 % 0.0 mm
21:50 22.6 °C 18.6 °C 1003.9 hPa Calm   3.2 km/h 78 % 0.0 mm
21:54 24.7 °C 17.7 °C 1000.9 hPa West 3.7 km/h 3.7 km/h 65 % 0.0 mm
21:59 24.7 °C 17.9 °C 1001.9 hPa WSW 3.7 km/h 3.7 km/h 66 % 0.0 mm
22:00 22.6 °C 18.6 °C 1003.9 hPa Calm   3.2 km/h 78 % 0.0 mm
22:04 24.7 °C 17.9 °C 1001.9 hPa West 4.7 km/h 4.7 km/h 66 % 0.0 mm
22:09 24.6 °C 17.8 °C 1001.9 hPa Calm     66 % 0.0 mm
22:10 22.7 °C 18.9 °C 1003.9 hPa NNW 3.2 km/h 4.8 km/h 79 % 0.0 mm
22:14 24.6 °C 17.8 °C 1001.9 hPa West 2.6 km/h   66 % 0.0 mm
22:19 24.6 °C 17.8 °C 1001.9 hPa West 3.7 km/h 3.7 km/h 66 % 0.0 mm
22:20 22.7 °C 18.9 °C 1003.9 hPa Calm     79 % 0.0 mm
22:24 24.6 °C 18.1 °C 1001.9 hPa SW 3.7 km/h 3.7 km/h 67 % 0.0 mm
22:29 24.5 °C 17.9 °C 1001.9 hPa WSW 1.9 km/h   67 % 0.0 mm
22:30 22.4 °C 18.4 °C 1003.9 hPa NE 8.0 km/h 8.0 km/h 78 % 0.0 mm
22:34 24.5 °C 17.9 °C 1001.9 hPa West 3.7 km/h 3.7 km/h 67 % 0.0 mm
22:39 24.4 °C 17.9 °C 1001.9 hPa WSW 3.7 km/h   67 % 0.0 mm
22:40 22.0 °C 17.8 °C 1003.9 hPa East 8.0 km/h 9.7 km/h 77 % 0.0 mm
22:44 24.4 °C 18.1 °C 1001.9 hPa Calm     68 % 0.0 mm
22:49 24.3 °C 18.0 °C 1001.9 hPa WSW 3.7 km/h 3.7 km/h 68 % 0.0 mm
22:50 21.9 °C 17.5 °C 1003.9 hPa East 11.3 km/h 12.9 km/h 76 % 0.0 mm
22:54 24.3 °C 18.0 °C 1001.9 hPa WSW 1.9 km/h   68 % 0.0 mm
22:59 24.2 °C 17.9 °C 1001.9 hPa SW 1.9 km/h   68 % 0.0 mm
23:00 21.8 °C 17.2 °C 1003.9 hPa East 4.8 km/h 9.7 km/h 75 % 0.0 mm
23:04 24.0 °C 17.7 °C 1001.9 hPa Calm     68 % 0.0 mm
23:09 23.9 °C 18.1 °C 1001.9 hPa SW 2.6 km/h 2.6 km/h 70 % 0.0 mm
23:10 21.8 °C 17.2 °C 1003.9 hPa East 8.0 km/h 11.3 km/h 75 % 0.0 mm
23:14 23.7 °C 17.9 °C 1002.9 hPa SW 3.7 km/h 3.7 km/h 70 % 0.0 mm
23:19 23.6 °C 18.1 °C 1002.9 hPa Calm     71 % 0.0 mm
23:20 21.6 °C 17.0 °C 1003.9 hPa East 4.8 km/h 8.0 km/h 75 % 0.0 mm
23:24 23.5 °C 17.9 °C 1002.9 hPa Calm     71 % 0.0 mm
23:29 23.5 °C 17.9 °C 1002.9 hPa SW 1.9 km/h   71 % 0.0 mm
23:30 21.4 °C 16.8 °C 1003.9 hPa ENE 3.2 km/h 6.4 km/h 75 % 0.0 mm
23:34 23.4 °C 17.8 °C 1002.9 hPa Calm     71 % 0.0 mm
23:39 23.4 °C 18.1 °C 1002.9 hPa SW 2.3 km/h 2.3 km/h 72 % 0.0 mm
23:40 21.2 °C 16.6 °C 1003.9 hPa ENE 3.2 km/h 6.4 km/h 75 % 0.0 mm
23:44 23.4 °C 18.1 °C 1002.9 hPa Calm     72 % 0.0 mm
23:49 23.4 °C 18.1 °C 1002.9 hPa SW 1.9 km/h 1.9 km/h 72 % 0.0 mm
23:50 21.1 °C 16.5 °C 1003.9 hPa NE 3.2 km/h 6.4 km/h 75 % 0.0 mm
23:54 23.4 °C 18.1 °C 1002.9 hPa SW 1.9 km/h 2.3 km/h 72 % 0.0 mm
23:59 23.4 °C 18.3 °C 1002.9 hPa WSW 1.9 km/h 1.9 km/h 73 % 0.0 mm
Meteo Sesrovires
Elogis d' Weather Underground - 3.5 mb

Guio original per  Jim McMurry - jmcmurry@mwt.net Adaptat per a la plantilla per  Wim van der Kuil - Leuven-Template.eu

Trobareu la nostra informacio del temps tambe a:

Weather Underground

AWEKAS